Appleby-in-Westmorland, United Kingdom
Current Conditions -  °F | °C
As of 11:50 AM on Friday 31 Oct 2014 (Local Time) from EGNC Reporting Station
Scattered Clouds Scattered Clouds  
Wind Chill: 64°   Ceiling: Unl
Heat Index: 64°   Visibility: 6mi
Dew Point: 57°   Wind: 16mph
Humidity: 77%   Direction: 210°SSW
Pressure: 29.8"   Gusts: 30mph
Location:  54.58°N, 2.5°W
Report Text: EGNC 311150Z 21014G26KT 170V230 9999 FEW020 SCT026 18/14 Q1009
Loading
Personal Weather Stations






























Interactive Weather Map
Tropical Storm Tracking
New forecast layout! Learn more

10-Day Weather Forecast

Advertisements
Track Severe Weather on mobile